sensor_id;sensor_type;location;lat;lon;timestamp;pressure;altitude;pressure_sealevel;temperature;humidity
78685;BME280;68002;52.310;6.990;2023-04-01T00:01:55;98826.38;;;9.71;89.37
78685;BME280;68002;52.310;6.990;2023-04-01T00:04:21;98832.53;;;9.71;89.86
78685;BME280;68002;52.310;6.990;2023-04-01T00:06:46;98828.88;;;9.72;89.61
78685;BME280;68002;52.310;6.990;2023-04-01T00:09:11;98828.50;;;9.75;89.56
78685;BME280;68002;52.310;6.990;2023-04-01T00:11:36;98826.22;;;9.72;89.67
78685;BME280;68002;52.310;6.990;2023-04-01T00:14:02;98826.22;;;9.72;90.00
78685;BME280;68002;52.310;6.990;2023-04-01T00:16:27;98828.03;;;9.72;90.19
78685;BME280;68002;52.310;6.990;2023-04-01T00:18:52;98830.91;;;9.70;89.83
78685;BME280;68002;52.310;6.990;2023-04-01T00:21:19;98823.69;;;9.71;89.89
78685;BME280;68002;52.310;6.990;2023-04-01T00:23:44;98819.56;;;9.68;90.11
78685;BME280;68002;52.310;6.990;2023-04-01T00:26:10;98826.09;;;9.66;89.82
78685;BME280;68002;52.310;6.990;2023-04-01T00:28:35;98818.53;;;9.69;89.51
78685;BME280;68002;52.310;6.990;2023-04-01T00:31:05;98823.88;;;9.69;89.58
78685;BME280;68002;52.310;6.990;2023-04-01T00:33:30;98831.69;;;9.71;90.32
78685;BME280;68002;52.310;6.990;2023-04-01T00:35:55;98815.03;;;9.69;90.23
78685;BME280;68002;52.310;6.990;2023-04-01T00:38:20;98814.22;;;9.68;89.91
78685;BME280;68002;52.310;6.990;2023-04-01T00:40:46;98820.38;;;9.69;90.50
78685;BME280;68002;52.310;6.990;2023-04-01T00:43:17;98818.34;;;9.71;90.13
78685;BME280;68002;52.310;6.990;2023-04-01T00:45:43;98808.25;;;9.66;90.24
78685;BME280;68002;52.310;6.990;2023-04-01T00:48:16;98812.84;;;9.72;90.59
78685;BME280;68002;52.310;6.990;2023-04-01T00:50:45;98809.88;;;9.67;89.98
78685;BME280;68002;52.310;6.990;2023-04-01T00:53:11;98811.38;;;9.70;90.76
78685;BME280;68002;52.310;6.990;2023-04-01T00:55:39;98812.75;;;9.66;90.94
78685;BME280;68002;52.310;6.990;2023-04-01T00:58:10;98805.75;;;9.65;90.36
78685;BME280;68002;52.310;6.990;2023-04-01T01:00:38;98811.09;;;9.65;90.21
78685;BME280;68002;52.310;6.990;2023-04-01T01:03:03;98802.44;;;9.63;90.57
78685;BME280;68002;52.310;6.990;2023-04-01T01:06:07;98802.25;;;9.64;90.19
78685;BME280;68002;52.310;6.990;2023-04-01T01:11:22;98807.88;;;9.69;90.28
78685;BME280;68002;52.310;6.990;2023-04-01T01:14:01;98808.25;;;9.66;90.26
78685;BME280;68002;52.310;6.990;2023-04-01T01:16:39;98806.75;;;9.64;91.01
78685;BME280;68002;52.310;6.990;2023-04-01T01:27:11;98797.91;;;9.63;90.95
78685;BME280;68002;52.310;6.990;2023-04-01T01:35:22;98802.63;;;9.61;91.09
78685;BME280;68002;52.310;6.990;2023-04-01T01:37:53;98798.09;;;9.62;90.90
78685;BME280;68002;52.310;6.990;2023-04-01T01:40:20;98799.13;;;9.61;91.17
78685;BME280;68002;52.310;6.990;2023-04-01T01:42:48;98797.09;;;9.63;90.94
78685;BME280;68002;52.310;6.990;2023-04-01T01:45:17;98808.44;;;9.65;90.68
78685;BME280;68002;52.310;6.990;2023-04-01T01:47:45;98797.75;;;9.65;90.48
78685;BME280;68002;52.310;6.990;2023-04-01T01:50:11;98806.56;;;9.65;90.87
78685;BME280;68002;52.310;6.990;2023-04-01T01:52:37;98793.59;;;9.62;90.51
78685;BME280;68002;52.310;6.990;2023-04-01T01:55:02;98798.56;;;9.65;90.72
78685;BME280;68002;52.310;6.990;2023-04-01T01:57:33;98805.91;;;9.63;90.99
78685;BME280;68002;52.310;6.990;2023-04-01T02:00:07;98800.75;;;9.62;91.16
78685;BME280;68002;52.310;6.990;2023-04-01T02:02:33;98797.38;;;9.68;90.59
78685;BME280;68002;52.310;6.990;2023-04-01T02:04:59;98800.94;;;9.60;91.05
78685;BME280;68002;52.310;6.990;2023-04-01T02:07:28;98802.63;;;9.61;90.57
78685;BME280;68002;52.310;6.990;2023-04-01T02:09:56;98805.91;;;9.63;90.54
78685;BME280;68002;52.310;6.990;2023-04-01T02:12:22;98800.31;;;9.58;90.87
78685;BME280;68002;52.310;6.990;2023-04-01T02:15:03;98796.44;;;9.61;91.35
78685;BME280;68002;52.310;6.990;2023-04-01T02:17:30;98801.59;;;9.62;91.03
78685;BME280;68002;52.310;6.990;2023-04-01T02:20:00;98807.13;;;9.61;90.73
78685;BME280;68002;52.310;6.990;2023-04-01T02:22:29;98805.31;;;9.61;91.36
78685;BME280;68002;52.310;6.990;2023-04-01T02:25:01;98812.81;;;9.58;90.73
78685;BME280;68002;52.310;6.990;2023-04-01T02:27:28;98808.50;;;9.57;91.76
78685;BME280;68002;52.310;6.990;2023-04-01T02:29:53;98812.34;;;9.54;91.55
78685;BME280;68002;52.310;6.990;2023-04-01T02:32:19;98806.00;;;9.55;92.10
78685;BME280;68002;52.310;6.990;2023-04-01T02:34:46;98809.69;;;9.54;91.75
78685;BME280;68002;52.310;6.990;2023-04-01T02:37:13;98812.34;;;9.54;91.44
78685;BME280;68002;52.310;6.990;2023-04-01T02:39:39;98814.03;;;9.55;91.24
78685;BME280;68002;52.310;6.990;2023-04-01T02:42:05;98811.53;;;9.54;90.99
78685;BME280;68002;52.310;6.990;2023-04-01T02:44:30;98818.53;;;9.55;91.50
78685;BME280;68002;52.310;6.990;2023-04-01T02:46:55;98820.34;;;9.54;91.80
78685;BME280;68002;52.310;6.990;2023-04-01T02:49:20;98815.31;;;9.59;91.33
78685;BME280;68002;52.310;6.990;2023-04-01T02:51:46;98823.16;;;9.61;91.00
78685;BME280;68002;52.310;6.990;2023-04-01T02:54:11;98808.31;;;9.58;91.77
78685;BME280;68002;52.310;6.990;2023-04-01T02:56:36;98830.31;;;9.60;91.68
78685;BME280;68002;52.310;6.990;2023-04-01T02:59:01;98814.69;;;9.57;91.72
78685;BME280;68002;52.310;6.990;2023-04-01T03:01:27;98818.00;;;9.59;91.05
78685;BME280;68002;52.310;6.990;2023-04-01T03:03:52;98824.31;;;9.58;91.08
78685;BME280;68002;52.310;6.990;2023-04-01T03:06:17;98822.88;;;9.56;91.74
78685;BME280;68002;52.310;6.990;2023-04-01T03:08:43;98828.66;;;9.59;91.49
78685;BME280;68002;52.310;6.990;2023-04-01T03:11:09;98824.31;;;9.58;90.98
78685;BME280;68002;52.310;6.990;2023-04-01T03:13:35;98820.81;;;9.58;91.62
78685;BME280;68002;52.310;6.990;2023-04-01T03:16:00;98832.16;;;9.60;91.53
78685;BME280;68002;52.310;6.990;2023-04-01T03:18:25;98834.66;;;9.61;91.28
78685;BME280;68002;52.310;6.990;2023-04-01T03:20:51;98828.94;;;9.64;91.95
78685;BME280;68002;52.310;6.990;2023-04-01T03:23:16;98832.00;;;9.61;91.84
78685;BME280;68002;52.310;6.990;2023-04-01T03:25:41;98838.31;;;9.60;91.72
78685;BME280;68002;52.310;6.990;2023-04-01T03:28:06;98838.31;;;9.60;91.31
78685;BME280;68002;52.310;6.990;2023-04-01T03:30:32;98844.69;;;9.59;91.92
78685;BME280;68002;52.310;6.990;2023-04-01T03:32:58;98844.31;;;9.62;91.72
78685;BME280;68002;52.310;6.990;2023-04-01T03:35:23;98839.81;;;9.63;91.25
78685;BME280;68002;52.310;6.990;2023-04-01T03:37:51;98840.63;;;9.63;91.42
78685;BME280;68002;52.310;6.990;2023-04-01T03:40:16;98846.44;;;9.67;91.90
78685;BME280;68002;52.310;6.990;2023-04-01T03:42:42;98852.78;;;9.66;91.58
78685;BME280;68002;52.310;6.990;2023-04-01T03:45:07;98846.25;;;9.68;91.71
78685;BME280;68002;52.310;6.990;2023-04-01T03:47:32;98849.41;;;9.72;91.06
78685;BME280;68002;52.310;6.990;2023-04-01T03:49:57;98846.06;;;9.70;91.45
78685;BME280;68002;52.310;6.990;2023-04-01T03:52:23;98855.06;;;9.69;91.92
78685;BME280;68002;52.310;6.990;2023-04-01T03:54:48;98838.50;;;9.59;91.15
78685;BME280;68002;52.310;6.990;2023-04-01T03:57:13;98850.94;;;9.66;91.20
78685;BME280;68002;52.310;6.990;2023-04-01T03:59:38;98855.44;;;9.66;91.55
78685;BME280;68002;52.310;6.990;2023-04-01T04:02:04;98860.59;;;9.67;91.46
78685;BME280;68002;52.310;6.990;2023-04-01T04:04:29;98865.75;;;9.69;91.33
78685;BME280;68002;52.310;6.990;2023-04-01T04:06:54;98859.16;;;9.65;91.94
78685;BME280;68002;52.310;6.990;2023-04-01T04:09:20;98858.31;;;9.64;91.85
78685;BME280;68002;52.310;6.990;2023-04-01T04:11:45;98864.50;;;9.65;91.79
78685;BME280;68002;52.310;6.990;2023-04-01T04:14:10;98870.28;;;9.68;91.82
78685;BME280;68002;52.310;6.990;2023-04-01T04:16:36;98870.28;;;9.68;91.30
78685;BME280;68002;52.310;6.990;2023-04-01T04:19:02;98870.94;;;9.70;92.04
78685;BME280;68002;52.310;6.990;2023-04-01T04:21:27;98870.47;;;9.67;91.86
78685;BME280;68002;52.310;6.990;2023-04-01T04:23:53;98867.97;;;9.65;91.97
78685;BME280;68002;52.310;6.990;2023-04-01T04:26:18;98869.25;;;9.69;91.27
78685;BME280;68002;52.310;6.990;2023-04-01T04:28:43;98875.63;;;9.68;91.88
78685;BME280;68002;52.310;6.990;2023-04-01T04:31:08;98879.28;;;9.67;92.26
78685;BME280;68002;52.310;6.990;2023-04-01T04:33:34;98881.78;;;9.69;92.10
78685;BME280;68002;52.310;6.990;2023-04-01T04:36:01;98885.09;;;9.71;91.27
78685;BME280;68002;52.310;6.990;2023-04-01T04:38:26;98891.91;;;9.73;91.89
78685;BME280;68002;52.310;6.990;2023-04-01T04:40:52;98885.09;;;9.71;91.40
78685;BME280;68002;52.310;6.990;2023-04-01T04:43:18;98893.75;;;9.73;91.26
78685;BME280;68002;52.310;6.990;2023-04-01T04:45:44;98889.44;;;9.72;91.83
78685;BME280;68002;52.310;6.990;2023-04-01T04:48:11;98893.94;;;9.71;91.41
78685;BME280;68002;52.310;6.990;2023-04-01T04:50:37;98894.97;;;9.70;91.96
78685;BME280;68002;52.310;6.990;2023-04-01T04:53:02;98901.94;;;9.71;91.29
78685;BME280;68002;52.310;6.990;2023-04-01T04:55:28;98905.66;;;9.70;91.39
78685;BME280;68002;52.310;6.990;2023-04-01T04:57:53;98904.81;;;9.70;91.43
78685;BME280;68002;52.310;6.990;2023-04-01T05:00:18;98908.97;;;9.72;92.10
78685;BME280;68002;52.310;6.990;2023-04-01T05:02:43;98905.00;;;9.68;92.03
78685;BME280;68002;52.310;6.990;2023-04-01T05:05:09;98910.78;;;9.72;91.89
78685;BME280;68002;52.310;6.990;2023-04-01T05:07:34;98916.13;;;9.72;91.89
78685;BME280;68002;52.310;6.990;2023-04-01T05:09:59;98918.34;;;9.68;91.81
78685;BME280;68002;52.310;6.990;2023-04-01T05:12:24;98915.66;;;9.68;92.13
78685;BME280;68002;52.310;6.990;2023-04-01T05:14:50;98917.31;;;9.69;91.61
78685;BME280;68002;52.310;6.990;2023-04-01T05:17:15;98917.31;;;9.69;91.51
78685;BME280;68002;52.310;6.990;2023-04-01T05:19:40;98915.50;;;9.70;91.73
78685;BME280;68002;52.310;6.990;2023-04-01T05:22:06;98927.66;;;9.72;91.28
78685;BME280;68002;52.310;6.990;2023-04-01T05:24:31;98927.47;;;9.74;91.70
78685;BME280;68002;52.310;6.990;2023-04-01T05:26:57;98924.63;;;9.75;92.22
78685;BME280;68002;52.310;6.990;2023-04-01T05:29:24;98922.59;;;9.77;91.87
78685;BME280;68002;52.310;6.990;2023-04-01T05:31:49;98922.59;;;9.77;92.06
78685;BME280;68002;52.310;6.990;2023-04-01T05:34:15;98930.41;;;9.79;92.15
78685;BME280;68002;52.310;6.990;2023-04-01T05:36:40;98937.88;;;9.83;91.78
78685;BME280;68002;52.310;6.990;2023-04-01T05:39:05;98937.72;;;9.85;91.44
78685;BME280;68002;52.310;6.990;2023-04-01T05:41:30;98937.34;;;9.88;92.20
78685;BME280;68002;52.310;6.990;2023-04-01T05:43:56;98945.34;;;9.88;91.65
78685;BME280;68002;52.310;6.990;2023-04-01T05:46:21;98944.88;;;9.84;91.52
78685;BME280;68002;52.310;6.990;2023-04-01T05:48:46;98938.91;;;9.82;91.91
78685;BME280;68002;52.310;6.990;2023-04-01T05:51:14;98940.91;;;9.80;91.12
78685;BME280;68002;52.310;6.990;2023-04-01T05:53:40;98946.06;;;9.82;90.96
78685;BME280;68002;52.310;6.990;2023-04-01T05:56:06;98947.09;;;9.81;91.19
78685;BME280;68002;52.310;6.990;2023-04-01T05:58:31;98960.91;;;9.84;90.78
78685;BME280;68002;52.310;6.990;2023-04-01T06:01:06;98952.63;;;9.79;91.38
78685;BME280;68002;52.310;6.990;2023-04-01T06:03:32;98968.28;;;9.82;90.96
78685;BME280;68002;52.310;6.990;2023-04-01T06:05:57;98962.09;;;9.82;91.59
78685;BME280;68002;52.310;6.990;2023-04-01T06:08:24;98962.09;;;9.82;91.25
78685;BME280;68002;52.310;6.990;2023-04-01T06:11:04;98963.41;;;9.86;91.35
78685;BME280;68002;52.310;6.990;2023-04-01T06:21:49;98970.97;;;9.97;91.25
78685;BME280;68002;52.310;6.990;2023-04-01T06:27:34;98983.16;;;9.99;91.43
78685;BME280;68002;52.310;6.990;2023-04-01T06:30:16;98987.28;;;10.02;91.12
78685;BME280;68002;52.310;6.990;2023-04-01T06:44:13;98993.16;;;10.20;91.26
78685;BME280;68002;52.310;6.990;2023-04-01T06:46:48;98988.00;;;10.19;91.32
78685;BME280;68002;52.310;6.990;2023-04-01T06:57:50;99002.66;;;10.23;90.40
78685;BME280;68002;52.310;6.990;2023-04-01T07:00:27;98997.69;;;10.20;90.06
78685;BME280;68002;52.310;6.990;2023-04-01T07:03:10;99015.94;;;10.16;90.71
78685;BME280;68002;52.310;6.990;2023-04-01T07:05:39;99009.38;;;10.19;91.00
78685;BME280;68002;52.310;6.990;2023-04-01T07:08:08;99003.50;;;10.23;91.10
78685;BME280;68002;52.310;6.990;2023-04-01T07:13:12;99013.75;;;10.34;90.81
78685;BME280;68002;52.310;6.990;2023-04-01T07:15:42;99017.81;;;10.45;90.96
78685;BME280;68002;52.310;6.990;2023-04-01T07:18:14;99025.09;;;10.51;90.32
78685;BME280;68002;52.310;6.990;2023-04-01T07:20:40;99032.75;;;10.54;90.21
78685;BME280;68002;52.310;6.990;2023-04-01T07:23:13;99039.22;;;10.59;90.23
78685;BME280;68002;52.310;6.990;2023-04-01T07:25:44;99039.84;;;10.61;90.15
78685;BME280;68002;52.310;6.990;2023-04-01T07:28:13;99045.84;;;10.63;89.95
78685;BME280;68002;52.310;6.990;2023-04-01T07:30:50;99055.19;;;10.67;90.12
78685;BME280;68002;52.310;6.990;2023-04-01T07:33:53;99048.44;;;10.71;89.56
78685;BME280;68002;52.310;6.990;2023-04-01T07:39:12;99054.53;;;10.80;89.79
78685;BME280;68002;52.310;6.990;2023-04-01T07:45:09;99061.84;;;11.00;90.19
78685;BME280;68002;52.310;6.990;2023-04-01T07:55:36;99074.53;;;11.28;89.20
78685;BME280;68002;52.310;6.990;2023-04-01T07:58:14;99071.75;;;11.36;88.93
78685;BME280;68002;52.310;6.990;2023-04-01T08:01:10;99071.84;;;11.42;89.15
78685;BME280;68002;52.310;6.990;2023-04-01T08:06:42;99079.88;;;11.42;87.06
78685;BME280;68002;52.310;6.990;2023-04-01T08:09:33;99091.28;;;11.51;88.47
78685;BME280;68002;52.310;6.990;2023-04-01T08:12:20;99095.91;;;11.57;87.47
78685;BME280;68002;52.310;6.990;2023-04-01T08:15:10;99098.00;;;11.61;87.51
78685;BME280;68002;52.310;6.990;2023-04-01T08:18:04;99101.47;;;11.70;87.86
78685;BME280;68002;52.310;6.990;2023-04-01T08:20:39;99104.19;;;11.76;87.78
78685;BME280;68002;52.310;6.990;2023-04-01T08:23:14;99109.06;;;11.87;87.16
78685;BME280;68002;52.310;6.990;2023-04-01T08:25:47;99114.97;;;11.97;87.49
78685;BME280;68002;52.310;6.990;2023-04-01T08:28:19;99109.25;;;12.07;86.94
78685;BME280;68002;52.310;6.990;2023-04-01T08:30:51;99122.16;;;12.18;86.15
78685;BME280;68002;52.310;6.990;2023-04-01T08:33:26;99114.19;;;12.25;87.20
78685;BME280;68002;52.310;6.990;2023-04-01T08:36:18;99115.53;;;12.35;86.54
78685;BME280;68002;52.310;6.990;2023-04-01T08:38:50;99102.31;;;12.34;85.26
78685;BME280;68002;52.310;6.990;2023-04-01T08:52:35;99134.03;;;12.72;83.76
78685;BME280;68002;52.310;6.990;2023-04-01T08:55:00;99138.16;;;12.75;84.03
78685;BME280;68002;52.310;6.990;2023-04-01T09:02:58;99141.78;;;12.67;82.99
78685;BME280;68002;52.310;6.990;2023-04-01T09:05:35;99156.69;;;12.70;83.52
78685;BME280;68002;52.310;6.990;2023-04-01T09:08:04;99149.84;;;12.67;83.27
78685;BME280;68002;52.310;6.990;2023-04-01T09:19:19;99171.53;;;12.45;81.81
78685;BME280;68002;52.310;6.990;2023-04-01T09:22:10;99175.81;;;12.39;83.36
78685;BME280;68002;52.310;6.990;2023-04-01T09:27:44;99188.44;;;12.24;81.98
78685;BME280;68002;52.310;6.990;2023-04-01T09:38:57;99188.88;;;12.70;82.82
78685;BME280;68002;52.310;6.990;2023-04-01T09:41:32;99198.59;;;12.71;80.45
78685;BME280;68002;52.310;6.990;2023-04-01T09:44:18;99198.25;;;12.80;81.86
78685;BME280;68002;52.310;6.990;2023-04-01T09:52:58;99208.53;;;12.77;79.55
78685;BME280;68002;52.310;6.990;2023-04-01T10:07:06;99222.66;;;13.06;80.60
78685;BME280;68002;52.310;6.990;2023-04-01T10:15:38;99228.06;;;13.34;79.49
78685;BME280;68002;52.310;6.990;2023-04-01T10:18:25;99231.19;;;13.44;79.52
78685;BME280;68002;52.310;6.990;2023-04-01T10:27:06;99242.53;;;13.67;77.96
78685;BME280;68002;52.310;6.990;2023-04-01T10:43:28;99257.84;;;14.07;76.51
78685;BME280;68002;52.310;6.990;2023-04-01T10:49:06;99256.97;;;14.00;75.88
78685;BME280;68002;52.310;6.990;2023-04-01T10:51:39;99251.44;;;13.74;74.62
78685;BME280;68002;52.310;6.990;2023-04-01T10:56:42;99252.88;;;13.70;77.12
78685;BME280;68002;52.310;6.990;2023-04-01T11:24:41;99294.59;;;13.66;75.30
78685;BME280;68002;52.310;6.990;2023-04-01T11:27:21;99304.38;;;13.46;75.81
78685;BME280;68002;52.310;6.990;2023-04-01T11:36:16;99312.38;;;12.97;79.08
78685;BME280;68002;52.310;6.990;2023-04-01T11:41:37;99319.19;;;12.79;79.13
78685;BME280;68002;52.310;6.990;2023-04-01T11:44:22;99316.25;;;12.74;79.87
78685;BME280;68002;52.310;6.990;2023-04-01T11:50:18;99333.03;;;12.61;80.38
78685;BME280;68002;52.310;6.990;2023-04-01T11:53:02;99337.81;;;12.66;81.06
78685;BME280;68002;52.310;6.990;2023-04-01T12:00:57;99348.06;;;12.77;78.79
78685;BME280;68002;52.310;6.990;2023-04-01T12:03:51;99356.56;;;12.80;79.25
78685;BME280;68002;52.310;6.990;2023-04-01T12:11:57;99356.59;;;13.01;80.53
78685;BME280;68002;52.310;6.990;2023-04-01T12:17:09;99364.50;;;13.24;78.84
78685;BME280;68002;52.310;6.990;2023-04-01T12:20:28;99367.31;;;13.37;78.63
78685;BME280;68002;52.310;6.990;2023-04-01T12:23:03;99368.66;;;13.48;78.09
78685;BME280;68002;52.310;6.990;2023-04-01T12:28:24;99383.88;;;13.41;76.59
78685;BME280;68002;52.310;6.990;2023-04-01T12:30:55;99380.53;;;13.39;77.26
78685;BME280;68002;52.310;6.990;2023-04-01T12:42:07;99402.41;;;13.36;76.59
78685;BME280;68002;52.310;6.990;2023-04-01T12:55:39;99431.25;;;12.62;79.52
78685;BME280;68002;52.310;6.990;2023-04-01T13:04:17;99446.53;;;12.47;81.25
78685;BME280;68002;52.310;6.990;2023-04-01T13:07:01;99448.41;;;12.47;81.34
78685;BME280;68002;52.310;6.990;2023-04-01T13:17:47;99453.28;;;12.72;79.45
78685;BME280;68002;52.310;6.990;2023-04-01T13:26:13;99471.13;;;12.94;79.88
78685;BME280;68002;52.310;6.990;2023-04-01T13:28:53;99474.47;;;12.96;78.00
78685;BME280;68002;52.310;6.990;2023-04-01T13:42:16;99490.28;;;13.06;78.09
78685;BME280;68002;52.310;6.990;2023-04-01T13:44:51;99495.00;;;13.04;78.20
78685;BME280;68002;52.310;6.990;2023-04-01T13:47:40;99494.50;;;13.00;78.97
78685;BME280;68002;52.310;6.990;2023-04-01T13:53:31;99505.84;;;13.10;79.26
78685;BME280;68002;52.310;6.990;2023-04-01T13:56:09;99501.56;;;13.16;78.81
78685;BME280;68002;52.310;6.990;2023-04-01T13:59:02;99503.22;;;13.17;78.72
78685;BME280;68002;52.310;6.990;2023-04-01T14:01:41;99498.63;;;13.11;78.90
78685;BME280;68002;52.310;6.990;2023-04-01T14:12:50;99530.06;;;12.73;80.30
78685;BME280;68002;52.310;6.990;2023-04-01T14:16:00;99531.44;;;12.69;80.47
78685;BME280;68002;52.310;6.990;2023-04-01T14:18:48;99546.81;;;12.61;80.20
78685;BME280;68002;52.310;6.990;2023-04-01T14:24:14;99553.31;;;12.29;80.96
78685;BME280;68002;52.310;6.990;2023-04-01T14:26:57;99554.59;;;12.19;81.24
78685;BME280;68002;52.310;6.990;2023-04-01T14:32:18;99569.25;;;12.08;80.75
78685;BME280;68002;52.310;6.990;2023-04-01T14:35:19;99573.69;;;12.01;79.35
78685;BME280;68002;52.310;6.990;2023-04-01T14:51:44;99588.25;;;12.21;81.50
78685;BME280;68002;52.310;6.990;2023-04-01T14:56:50;99606.38;;;12.19;81.12
78685;BME280;68002;52.310;6.990;2023-04-01T15:02:01;99620.16;;;12.31;80.22
78685;BME280;68002;52.310;6.990;2023-04-01T15:10:16;99626.72;;;12.05;81.81
78685;BME280;68002;52.310;6.990;2023-04-01T15:12:57;99636.50;;;11.98;81.26
78685;BME280;68002;52.310;6.990;2023-04-01T15:15:39;99645.53;;;11.67;81.54
78685;BME280;68002;52.310;6.990;2023-04-01T15:18:16;99645.63;;;11.43;82.81
78685;BME280;68002;52.310;6.990;2023-04-01T15:21:05;99661.41;;;11.30;82.84
78685;BME280;68002;52.310;6.990;2023-04-01T15:26:22;99680.00;;;11.23;82.69
78685;BME280;68002;52.310;6.990;2023-04-01T15:29:38;99686.41;;;11.06;83.56
78685;BME280;68002;52.310;6.990;2023-04-01T15:32:01;99685.56;;;10.97;83.39
78685;BME280;68002;52.310;6.990;2023-04-01T15:34:37;99690.94;;;10.81;83.84
78685;BME280;68002;52.310;6.990;2023-04-01T15:45:28;99719.88;;;10.78;84.25
78685;BME280;68002;52.310;6.990;2023-04-01T15:48:00;99725.69;;;10.73;84.03
78685;BME280;68002;52.310;6.990;2023-04-01T15:50:51;99730.38;;;10.71;84.52
78685;BME280;68002;52.310;6.990;2023-04-01T16:00:07;99743.25;;;10.68;85.05
78685;BME280;68002;52.310;6.990;2023-04-01T16:02:23;99750.28;;;10.69;84.92
78685;BME280;68002;52.310;6.990;2023-04-01T16:27:02;99818.03;;;10.20;85.69
78685;BME280;68002;52.310;6.990;2023-04-01T16:29:46;99811.78;;;10.11;85.53
78685;BME280;68002;52.310;6.990;2023-04-01T16:32:43;99839.16;;;10.05;84.85
78685;BME280;68002;52.310;6.990;2023-04-01T16:36:20;99839.63;;;10.00;85.99
78685;BME280;68002;52.310;6.990;2023-04-01T16:38:26;99843.81;;;10.03;84.98
78685;BME280;68002;52.310;6.990;2023-04-01T16:43:39;99847.97;;;9.97;85.18
78685;BME280;68002;52.310;6.990;2023-04-01T16:49:00;99859.75;;;9.87;85.63
78685;BME280;68002;52.310;6.990;2023-04-01T16:51:33;99863.56;;;9.84;84.73
78685;BME280;68002;52.310;6.990;2023-04-01T16:54:05;99871.06;;;9.81;85.45
78685;BME280;68002;52.310;6.990;2023-04-01T16:56:45;99880.88;;;9.72;85.51
78685;BME280;68002;52.310;6.990;2023-04-01T16:59:47;99880.63;;;9.66;85.41
78685;BME280;68002;52.310;6.990;2023-04-01T17:02:14;99881.25;;;9.60;85.45
78685;BME280;68002;52.310;6.990;2023-04-01T17:07:40;99914.06;;;9.52;84.79
78685;BME280;68002;52.310;6.990;2023-04-01T17:10:33;99903.34;;;9.44;85.54
78685;BME280;68002;52.310;6.990;2023-04-01T17:13:29;99904.03;;;9.46;85.42
78685;BME280;68002;52.310;6.990;2023-04-01T17:16:13;99914.19;;;9.43;85.08
78685;BME280;68002;52.310;6.990;2023-04-01T17:24:36;99942.06;;;9.31;85.74
78685;BME280;68002;52.310;6.990;2023-04-01T17:27:41;99949.03;;;9.24;85.50
78685;BME280;68002;52.310;6.990;2023-04-01T17:35:13;99976.56;;;9.24;85.79
78685;BME280;68002;52.310;6.990;2023-04-01T17:43:09;99996.22;;;9.23;85.44
78685;BME280;68002;52.310;6.990;2023-04-01T17:45:55;99998.66;;;9.17;85.37
78685;BME280;68002;52.310;6.990;2023-04-01T17:48:45;100008.09;;;9.11;85.74
78685;BME280;68002;52.310;6.990;2023-04-01T17:51:29;100006.88;;;9.05;85.76
78685;BME280;68002;52.310;6.990;2023-04-01T17:54:22;100009.97;;;9.01;85.99
78685;BME280;68002;52.310;6.990;2023-04-01T17:57:02;100026.97;;;9.00;85.65
78685;BME280;68002;52.310;6.990;2023-04-01T17:59:39;100021.84;;;8.89;85.50
78685;BME280;68002;52.310;6.990;2023-04-01T18:05:19;100037.06;;;8.79;84.69
78685;BME280;68002;52.310;6.990;2023-04-01T18:11:05;100060.81;;;8.63;86.02
78685;BME280;68002;52.310;6.990;2023-04-01T18:13:58;100066.44;;;8.60;85.94
78685;BME280;68002;52.310;6.990;2023-04-01T18:21:48;100090.03;;;8.55;86.01
78685;BME280;68002;52.310;6.990;2023-04-01T18:24:24;100100.00;;;8.53;86.28
78685;BME280;68002;52.310;6.990;2023-04-01T18:27:16;100099.31;;;8.51;85.97
78685;BME280;68002;52.310;6.990;2023-04-01T18:29:52;100117.25;;;8.49;86.84
78685;BME280;68002;52.310;6.990;2023-04-01T18:35:21;100131.28;;;8.41;86.91
78685;BME280;68002;52.310;6.990;2023-04-01T18:38:19;100138.59;;;8.39;86.80
78685;BME280;68002;52.310;6.990;2023-04-01T18:43:42;100150.66;;;8.34;86.38
78685;BME280;68002;52.310;6.990;2023-04-01T18:49:39;100168.91;;;8.29;85.31
78685;BME280;68002;52.310;6.990;2023-04-01T18:52:17;100171.13;;;8.24;85.78
78685;BME280;68002;52.310;6.990;2023-04-01T18:57:19;100199.16;;;8.18;85.22
78685;BME280;68002;52.310;6.990;2023-04-01T19:02:48;100208.94;;;8.08;85.07
78685;BME280;68002;52.310;6.990;2023-04-01T19:07:50;100215.28;;;8.07;84.84
78685;BME280;68002;52.310;6.990;2023-04-01T19:15:33;100226.91;;;7.96;85.32
78685;BME280;68002;52.310;6.990;2023-04-01T19:26:34;100259.81;;;7.95;85.21
78685;BME280;68002;52.310;6.990;2023-04-01T19:29:17;100279.69;;;7.91;85.55
78685;BME280;68002;52.310;6.990;2023-04-01T19:32:12;100270.28;;;7.87;84.54
78685;BME280;68002;52.310;6.990;2023-04-01T19:37:43;100275.03;;;7.74;84.53
78685;BME280;68002;52.310;6.990;2023-04-01T19:40:35;100285.94;;;7.71;84.96
78685;BME280;68002;52.310;6.990;2023-04-01T19:43:18;100285.94;;;7.71;85.06
78685;BME280;68002;52.310;6.990;2023-04-01T19:45:54;100294.88;;;7.61;84.35
78685;BME280;68002;52.310;6.990;2023-04-01T19:48:43;100306.03;;;7.55;83.82
78685;BME280;68002;52.310;6.990;2023-04-01T19:51:40;100312.72;;;7.49;84.43
78685;BME280;68002;52.310;6.990;2023-04-01T19:57:13;100306.00;;;7.45;84.57
78685;BME280;68002;52.310;6.990;2023-04-01T20:08:40;100345.88;;;7.36;84.66
78685;BME280;68002;52.310;6.990;2023-04-01T20:11:26;100356.88;;;7.31;84.58
78685;BME280;68002;52.310;6.990;2023-04-01T20:17:16;100369.38;;;7.31;84.76
78685;BME280;68002;52.310;6.990;2023-04-01T20:19:59;100375.78;;;7.28;85.37
78685;BME280;68002;52.310;6.990;2023-04-01T20:25:10;100392.00;;;7.25;85.22
78685;BME280;68002;52.310;6.990;2023-04-01T20:27:41;100397.91;;;7.29;86.32
78685;BME280;68002;52.310;6.990;2023-04-01T20:36:03;100420.78;;;7.20;85.77
78685;BME280;68002;52.310;6.990;2023-04-01T20:39:03;100417.41;;;7.18;85.20
78685;BME280;68002;52.310;6.990;2023-04-01T20:49:38;100447.41;;;7.09;84.45
78685;BME280;68002;52.310;6.990;2023-04-01T20:54:43;100446.81;;;7.05;84.38
78685;BME280;68002;52.310;6.990;2023-04-01T20:57:44;100462.91;;;7.04;85.05
78685;BME280;68002;52.310;6.990;2023-04-01T21:03:59;100466.06;;;6.98;84.54
78685;BME280;68002;52.310;6.990;2023-04-01T21:09:37;100470.78;;;6.94;84.86